Terminal Aerodrome Forecast
Issued by NWS Brownsville, TX

Home | Current Version | Previous Version | Text Only | Print | Product List | Glossary On
Versions: 1 2 3 4 5 6 7 8 9 10 11 12
561
FTUS44 KBRO 231734
TAFHRL
TAF
KHRL 231734Z 2318/2418 16022G30KT P6SM FEW040 FEW250
     FM240100 15014G20KT P6SM FEW250
     FM240400 17008KT P6SM FEW020
     FM241500 16014G18KT P6SM SCT035=

USA.gov is the U.S. government's official web portal to all federal, state and local government web resources and services.